createdAt,value
2018-12-10T00:00:19.306Z,96510.58
2018-12-10T00:00:50.892Z,96524.05
2018-12-10T00:01:22.609Z,96497.89
2018-12-10T00:01:54.169Z,96498.62
2018-12-10T00:02:25.788Z,96519.88
2018-12-10T00:03:14.070Z,96506.20
2018-12-10T00:03:45.662Z,96504.83
2018-12-10T00:04:17.257Z,96509.41
2018-12-10T00:04:48.898Z,96478.27
2018-12-10T00:05:20.512Z,96490.94
2018-12-10T00:05:52.106Z,96501.80
2018-12-10T00:06:23.702Z,96506.45
2018-12-10T00:06:55.280Z,96504.27
2018-12-10T00:07:26.888Z,96472.44
2018-12-10T00:07:58.486Z,96501.67
2018-12-10T00:08:30.082Z,96510.50
2018-12-10T00:09:01.697Z,96503.94
2018-12-10T00:09:33.292Z,96510.37
2018-12-10T00:10:04.992Z,96506.50
2018-12-10T00:10:41.585Z,96508.20
2018-12-10T00:11:08.280Z,96504.63
2018-12-10T00:11:39.868Z,96509.24
2018-12-10T00:12:11.484Z,96504.47
2018-12-10T00:12:43.102Z,96515.94
2018-12-10T00:13:14.689Z,96511.22
2018-12-10T00:13:46.286Z,96509.87
2018-12-10T00:14:17.901Z,96512.02
2018-12-10T00:14:49.540Z,96508.59
2018-12-10T00:15:21.144Z,96515.00
2018-12-10T00:15:52.747Z,96516.70
2018-12-10T00:16:24.428Z,96511.09
2018-12-10T00:16:56.027Z,96517.02
2018-12-10T00:17:27.629Z,96513.20
2018-12-10T00:17:59.231Z,96514.07
2018-12-10T00:18:30.819Z,96513.20
2018-12-10T00:19:02.418Z,96502.07
2018-12-10T00:19:34.016Z,96523.39
2018-12-10T00:20:05.646Z,96521.59
2018-12-10T00:20:37.254Z,96516.91
2018-12-10T00:21:08.856Z,96516.53
2018-12-10T00:21:40.449Z,96516.11
2018-12-10T00:22:12.041Z,96517.84
2018-12-10T00:22:43.637Z,96524.70
2018-12-10T00:23:15.238Z,96518.71
2018-12-10T00:23:46.849Z,96521.82
2018-12-10T00:24:18.450Z,96519.20
2018-12-10T00:24:50.042Z,96524.39
2018-12-10T00:25:21.648Z,96526.12
2018-12-10T00:25:53.232Z,96523.14
2018-12-10T00:26:24.819Z,96528.65
2018-12-10T00:26:56.429Z,96534.64
2018-12-10T00:27:28.029Z,96529.16
2018-12-10T00:27:59.626Z,96513.02
2018-12-10T00:28:31.224Z,96531.31
2018-12-10T00:29:02.825Z,96525.48
2018-12-10T00:29:34.422Z,96531.16
2018-12-10T00:30:06.076Z,96526.13
2018-12-10T00:30:37.657Z,96534.27
2018-12-10T00:31:09.255Z,96530.56
2018-12-10T00:31:40.867Z,96531.11
2018-12-10T00:32:12.462Z,96538.86
2018-12-10T00:32:44.104Z,96532.04
2018-12-10T00:33:15.698Z,96537.27
2018-12-10T00:33:47.307Z,96536.53
2018-12-10T00:34:18.921Z,96510.84
2018-12-10T00:34:50.525Z,96538.80
2018-12-10T00:35:22.152Z,96535.48
2018-12-10T00:35:53.764Z,96542.84
2018-12-10T00:36:25.372Z,96543.71
2018-12-10T00:36:56.966Z,96541.66
2018-12-10T00:37:28.566Z,96546.40
2018-12-10T00:38:00.180Z,96555.46
2018-12-10T00:38:31.778Z,96549.13
2018-12-10T00:39:03.378Z,96542.88
2018-12-10T00:39:34.975Z,96547.59
2018-12-10T00:40:06.580Z,96549.38
2018-12-10T00:40:38.182Z,96552.36
2018-12-10T00:41:09.797Z,96537.54
2018-12-10T00:41:41.412Z,96549.92
2018-12-10T00:42:13.032Z,96554.67
2018-12-10T00:42:44.648Z,96554.00
2018-12-10T00:43:16.245Z,96557.09
2018-12-10T00:43:47.844Z,96546.47
2018-12-10T00:44:19.455Z,96554.64
2018-12-10T00:44:51.063Z,96562.41
2018-12-10T00:45:22.650Z,96566.77
2018-12-10T00:45:54.276Z,96565.61
2018-12-10T00:46:25.875Z,96560.62
2018-12-10T00:46:57.469Z,96560.69
2018-12-10T00:47:29.072Z,96572.30
2018-12-10T00:48:00.666Z,96568.11
2018-12-10T00:48:32.275Z,96569.87
2018-12-10T00:49:03.870Z,96582.73
2018-12-10T00:49:35.466Z,96577.70
2018-12-10T00:50:07.060Z,96583.30
2018-12-10T00:50:38.657Z,96574.47
2018-12-10T00:51:10.284Z,96575.91
2018-12-10T00:51:41.892Z,96572.09
2018-12-10T00:52:13.486Z,96578.14
2018-12-10T00:52:45.087Z,96569.24
2018-12-10T00:53:16.714Z,96575.77
2018-12-10T00:53:48.324Z,96577.17
2018-12-10T00:54:19.935Z,96572.56
2018-12-10T00:54:51.519Z,96547.58
2018-12-10T00:55:23.118Z,96566.34
2018-12-10T00:55:54.741Z,96581.38
2018-12-10T00:56:26.334Z,96572.88
2018-12-10T00:56:57.934Z,96572.91
2018-12-10T00:57:29.525Z,96581.54
2018-12-10T00:58:01.131Z,96580.73
2018-12-10T00:58:32.740Z,96575.64
2018-12-10T00:59:04.342Z,96579.58
2018-12-10T00:59:35.924Z,96578.30
2018-12-10T01:00:07.532Z,96581.30
2018-12-10T01:00:39.135Z,96580.02
2018-12-10T01:01:10.743Z,96573.69
2018-12-10T01:01:42.341Z,96587.34
2018-12-10T01:02:13.948Z,96584.81
2018-12-10T01:02:45.541Z,96579.34
2018-12-10T01:03:17.124Z,96583.62
2018-12-10T01:03:48.722Z,96584.13
2018-12-10T01:04:20.304Z,96582.86
2018-12-10T01:04:51.898Z,96585.89
2018-12-10T01:05:23.508Z,96580.84
2018-12-10T01:05:55.092Z,96588.52
2018-12-10T01:06:26.714Z,96588.96
2018-12-10T01:06:58.919Z,96586.94
2018-12-10T01:07:29.958Z,96578.02
2018-12-10T01:08:01.556Z,96566.24
2018-12-10T01:08:33.188Z,96584.89
2018-12-10T01:09:04.785Z,96584.89
2018-12-10T01:09:36.396Z,96587.48
2018-12-10T01:10:07.990Z,96579.86
2018-12-10T01:10:39.597Z,96585.45
2018-12-10T01:11:11.214Z,96603.37
2018-12-10T01:11:42.834Z,96584.65
2018-12-10T01:12:14.434Z,96596.58
2018-12-10T01:12:46.036Z,96585.52
2018-12-10T01:13:17.641Z,96598.31
2018-12-10T01:13:49.234Z,96597.06
2018-12-10T01:14:20.839Z,96598.34
2018-12-10T01:14:52.449Z,96594.56
2018-12-10T01:15:24.045Z,96591.59
2018-12-10T01:15:55.688Z,96595.45
2018-12-10T01:16:27.335Z,96596.73
2018-12-10T01:16:58.965Z,96601.88
2018-12-10T01:17:30.571Z,96603.99
2018-12-10T01:18:02.172Z,96595.96
2018-12-10T01:18:33.774Z,96598.02
2018-12-10T01:19:05.376Z,96599.32
2018-12-10T01:19:36.988Z,96592.84
2018-12-10T01:20:08.597Z,96603.07
2018-12-10T01:20:40.208Z,96597.06
2018-12-10T01:21:11.814Z,96597.95
2018-12-10T01:21:43.448Z,96609.83
2018-12-10T01:22:15.045Z,96605.54
2018-12-10T01:22:46.700Z,96613.60
2018-12-10T01:23:22.394Z,96609.77
2018-12-10T01:23:53.988Z,96613.60
2018-12-10T01:24:25.587Z,96611.81
2018-12-10T01:24:57.192Z,96602.03
2018-12-10T01:25:28.786Z,96615.23
2018-12-10T01:26:00.391Z,96608.78
2018-12-10T01:26:32.005Z,96612.62
2018-12-10T01:27:03.608Z,96611.70
2018-12-10T01:27:35.334Z,96611.70
2018-12-10T01:28:06.882Z,96620.20
2018-12-10T01:28:38.482Z,96616.34
2018-12-10T01:29:10.100Z,96618.39
2018-12-10T01:29:41.694Z,96614.49
2018-12-10T01:30:13.277Z,96613.66
2018-12-10T01:30:45.029Z,96607.94
2018-12-10T01:31:16.635Z,96579.54
2018-12-10T01:31:48.273Z,96612.94
2018-12-10T01:32:19.866Z,96614.22
2018-12-10T01:32:51.472Z,96614.19
2018-12-10T01:33:23.053Z,96615.83
2018-12-10T01:33:54.642Z,96620.82
2018-12-10T01:34:26.224Z,96627.97
2018-12-10T01:34:57.818Z,96624.09
2018-12-10T01:35:29.413Z,96627.40
2018-12-10T01:36:01.024Z,96620.88
2018-12-10T01:36:32.644Z,96611.05
2018-12-10T01:37:04.281Z,96622.42
2018-12-10T01:37:35.887Z,96629.17
2018-12-10T01:38:07.501Z,96623.96
2018-12-10T01:38:39.102Z,96627.71
2018-12-10T01:39:10.688Z,96620.41
2018-12-10T01:39:42.282Z,96630.50
2018-12-10T01:40:13.873Z,96630.41
2018-12-10T01:40:45.470Z,96616.69
2018-12-10T01:41:17.071Z,96636.21
2018-12-10T01:41:48.689Z,96628.92
2018-12-10T01:42:20.296Z,96634.78
2018-12-10T01:42:51.890Z,96637.22
2018-12-10T01:43:23.486Z,96634.63
2018-12-10T01:43:55.085Z,96628.09
2018-12-10T01:44:26.682Z,96634.50
2018-12-10T01:44:58.288Z,96635.78
2018-12-10T01:45:29.880Z,96631.08
2018-12-10T01:46:01.500Z,96630.53
2018-12-10T01:46:33.116Z,96637.73
2018-12-10T01:47:04.724Z,96635.91
2018-12-10T01:47:36.317Z,96634.95
2018-12-10T01:48:07.904Z,96626.38
2018-12-10T01:48:39.492Z,96618.33
2018-12-10T01:49:11.091Z,96642.48
2018-12-10T01:49:42.699Z,96637.75
2018-12-10T01:50:14.298Z,96641.63
2018-12-10T01:50:45.884Z,96641.17
2018-12-10T01:51:17.477Z,96637.69
2018-12-10T01:51:49.084Z,96643.61
2018-12-10T01:52:20.691Z,96637.11
2018-12-10T01:52:52.304Z,96648.16
2018-12-10T01:53:23.902Z,96642.94
2018-12-10T01:53:55.566Z,96645.06
2018-12-10T01:54:27.156Z,96645.44
2018-12-10T01:54:58.744Z,96652.33
2018-12-10T01:55:30.341Z,96637.73
2018-12-10T01:56:01.938Z,96645.41
2018-12-10T01:56:33.529Z,96644.58
2018-12-10T01:57:05.155Z,96652.68
2018-12-10T01:57:36.760Z,96647.50
2018-12-10T01:58:08.354Z,96641.89
2018-12-10T01:58:39.950Z,96646.92
2018-12-10T01:59:11.551Z,96645.88
2018-12-10T01:59:43.154Z,96650.90
2018-12-10T02:00:14.746Z,96650.48
2018-12-10T02:00:46.337Z,96649.17
2018-12-10T02:01:17.929Z,96644.43
2018-12-10T02:01:49.525Z,96646.58
2018-12-10T02:02:21.224Z,96646.58
2018-12-10T02:02:52.788Z,96652.15
2018-12-10T02:03:24.383Z,96652.30
2018-12-10T02:03:55.978Z,96645.84
2018-12-10T02:04:27.574Z,96654.73
2018-12-10T02:04:59.165Z,96658.17
2018-12-10T02:05:30.762Z,96630.08
2018-12-10T02:06:02.372Z,96651.86
2018-12-10T02:06:33.964Z,96647.12
2018-12-10T02:07:05.571Z,96650.96
2018-12-10T02:07:37.191Z,96653.17
2018-12-10T02:08:08.856Z,96651.89
2018-12-10T02:08:40.433Z,96658.73
2018-12-10T02:09:12.030Z,96657.14
2018-12-10T02:09:43.718Z,96651.15
2018-12-10T02:10:15.276Z,96660.14
2018-12-10T02:10:46.883Z,96671.77
2018-12-10T02:11:18.519Z,96653.45
2018-12-10T02:11:50.117Z,96663.37
2018-12-10T02:12:21.756Z,96660.27
2018-12-10T02:12:53.354Z,96665.55
2018-12-10T02:13:24.941Z,96670.80
2018-12-10T02:13:56.535Z,96663.14
2018-12-10T02:14:28.139Z,96659.39
2018-12-10T02:14:59.744Z,96656.52
2018-12-10T02:15:31.341Z,96660.86
2018-12-10T02:16:02.949Z,96672.90
2018-12-10T02:16:34.541Z,96660.98
2018-12-10T02:17:06.142Z,96663.13
2018-12-10T02:17:37.762Z,96657.66
2018-12-10T02:18:09.456Z,96658.55
2018-12-10T02:18:40.997Z,96662.93
2018-12-10T02:19:12.594Z,96664.15
2018-12-10T02:19:44.182Z,96662.07
2018-12-10T02:20:15.781Z,96652.27
2018-12-10T02:20:47.391Z,96665.64
2018-12-10T02:21:18.992Z,96677.20
2018-12-10T02:21:50.590Z,96662.70
2018-12-10T02:22:22.214Z,96663.63
2018-12-10T02:22:53.813Z,96657.70
2018-12-10T02:23:25.448Z,96663.69
2018-12-10T02:23:57.056Z,96662.05
2018-12-10T02:24:28.648Z,96659.55
2018-12-10T02:25:00.242Z,96659.55
2018-12-10T02:25:31.848Z,96662.20
2018-12-10T02:26:03.455Z,96652.02
2018-12-10T02:26:35.060Z,96658.52
2018-12-10T02:27:06.955Z,96654.70
2018-12-10T02:27:38.592Z,96652.36
2018-12-10T02:28:10.200Z,96662.51
2018-12-10T02:28:47.377Z,96661.70
2018-12-10T02:29:18.992Z,96662.60
2018-12-10T02:29:50.600Z,96661.77
2018-12-10T02:30:22.205Z,96663.94
2018-12-10T02:30:53.817Z,96669.92
2018-12-10T02:31:25.425Z,96660.61
2018-12-10T02:31:57.022Z,96664.89
2018-12-10T02:32:28.656Z,96661.56
2018-12-10T02:33:00.258Z,96669.30
2018-12-10T02:33:31.864Z,96664.60
2018-12-10T02:34:03.464Z,96668.47
2018-12-10T02:34:35.062Z,96659.12
2018-12-10T02:35:06.657Z,96661.69
2018-12-10T02:35:38.267Z,96667.22
2018-12-10T02:36:09.875Z,96675.77
2018-12-10T02:36:41.483Z,96671.15
2018-12-10T02:37:13.075Z,96678.41
2018-12-10T02:37:44.708Z,96665.67
2018-12-10T02:38:16.295Z,96669.99
2018-12-10T02:38:47.889Z,96672.16
2018-12-10T02:39:19.491Z,96668.36
2018-12-10T02:39:51.075Z,96661.53
2018-12-10T02:40:22.669Z,96674.81
2018-12-10T02:40:54.271Z,96677.37
2018-12-10T02:41:25.876Z,96672.25
2018-12-10T02:41:57.460Z,96686.36
2018-12-10T02:42:29.136Z,96668.44
2018-12-10T02:43:00.748Z,96674.02
2018-12-10T02:43:32.345Z,96671.95
2018-12-10T02:44:03.944Z,96678.36
2018-12-10T02:44:35.552Z,96678.80
2018-12-10T02:45:07.146Z,96678.41
2018-12-10T02:45:38.747Z,96673.73
2018-12-10T02:46:10.332Z,96668.63
2018-12-10T02:46:41.930Z,96679.81
2018-12-10T02:47:13.523Z,96686.51
2018-12-10T02:47:45.141Z,96673.73
2018-12-10T02:48:16.735Z,96675.89
2018-12-10T02:48:48.327Z,96685.32
2018-12-10T02:49:19.922Z,96670.83
2018-12-10T02:49:51.533Z,96678.53
2018-12-10T02:50:23.135Z,96672.14
2018-12-10T02:50:54.733Z,96684.91
2018-12-10T02:51:26.327Z,96676.39
2018-12-10T02:51:57.922Z,96687.05
2018-12-10T02:52:29.527Z,96680.64
2018-12-10T02:53:01.136Z,96686.60
2018-12-10T02:53:32.729Z,96681.06
2018-12-10T02:54:04.336Z,96689.61
2018-12-10T02:54:35.930Z,96681.12
2018-12-10T02:55:07.523Z,96690.91
2018-12-10T02:55:39.108Z,96687.49
2018-12-10T02:56:10.711Z,96685.70
2018-12-10T02:56:42.323Z,96691.72
2018-12-10T02:57:13.944Z,96698.12
2018-12-10T02:57:45.572Z,96693.86
2018-12-10T02:58:17.166Z,96690.89
2018-12-10T02:58:48.763Z,96666.50
2018-12-10T02:59:20.372Z,96695.05
2018-12-10T02:59:51.966Z,96692.49
2018-12-10T03:00:23.559Z,96690.35
2018-12-10T03:00:55.168Z,96700.50
2018-12-10T03:01:26.779Z,96702.17
2018-12-10T03:01:58.390Z,96697.49
2018-12-10T03:02:29.990Z,96701.33
2018-12-10T03:03:01.610Z,96705.11
2018-12-10T03:03:33.187Z,96700.86
2018-12-10T03:04:04.803Z,96701.21
2018-12-10T03:04:36.425Z,96702.55
2018-12-10T03:05:08.036Z,96700.34
2018-12-10T03:05:39.623Z,96707.11
2018-12-10T03:06:11.214Z,96704.91
2018-12-10T03:06:42.821Z,96704.02
2018-12-10T03:07:14.432Z,96712.53
2018-12-10T03:07:46.047Z,96714.16
2018-12-10T03:08:17.645Z,96703.48
2018-12-10T03:08:49.228Z,96710.71
2018-12-10T03:09:20.828Z,96709.34
2018-12-10T03:09:52.434Z,96717.80
2018-12-10T03:10:24.039Z,96710.91
2018-12-10T03:10:55.658Z,96718.09
2018-12-10T03:11:27.272Z,96722.70
2018-12-10T03:11:58.883Z,96729.08
2018-12-10T03:12:30.495Z,96723.42
2018-12-10T03:13:02.147Z,96722.89
2018-12-10T03:13:33.756Z,96727.50
2018-12-10T03:14:05.365Z,96726.99
2018-12-10T03:14:36.962Z,96725.59
2018-12-10T03:15:08.552Z,96732.35
2018-12-10T03:15:40.152Z,96729.38
2018-12-10T03:16:11.750Z,96726.28
2018-12-10T03:16:43.345Z,96731.78
2018-12-10T03:17:14.941Z,96735.12
2018-12-10T03:17:46.568Z,96730.80
2018-12-10T03:18:18.195Z,96725.61
2018-12-10T03:18:49.790Z,96730.65
2018-12-10T03:19:21.386Z,96739.11
2018-12-10T03:19:52.971Z,96722.87
2018-12-10T03:20:24.567Z,96741.22
2018-12-10T03:20:56.176Z,96730.08
2018-12-10T03:21:27.774Z,96735.62
2018-12-10T03:21:59.408Z,96742.34
2018-12-10T03:22:31.007Z,96735.98
2018-12-10T03:23:02.637Z,96740.56
2018-12-10T03:23:34.249Z,96738.39
2018-12-10T03:24:05.912Z,96734.93
2018-12-10T03:24:37.524Z,96748.16
2018-12-10T03:25:09.130Z,96751.48
2018-12-10T03:25:40.736Z,96736.95
2018-12-10T03:26:12.334Z,96741.21
2018-12-10T03:26:43.934Z,96736.53
2018-12-10T03:27:15.531Z,96735.25
2018-12-10T03:27:47.141Z,96748.45
2018-12-10T03:28:18.766Z,96748.90
2018-12-10T03:28:50.371Z,96717.88
2018-12-10T03:29:21.984Z,96747.53
2018-12-10T03:29:53.589Z,96754.80
2018-12-10T03:30:25.207Z,96750.59
2018-12-10T03:30:56.860Z,96741.21
2018-12-10T03:31:28.459Z,96744.67
2018-12-10T03:32:00.084Z,96748.87
2018-12-10T03:32:31.687Z,96738.20
2018-12-10T03:33:03.303Z,96750.06
2018-12-10T03:33:34.894Z,96742.81
2018-12-10T03:34:06.511Z,96747.08
2018-12-10T03:34:38.125Z,96743.27
2018-12-10T03:35:09.734Z,96753.52
2018-12-10T03:35:41.338Z,96750.59
2018-12-10T03:36:12.938Z,96744.67
2018-12-10T03:36:44.540Z,96745.95
2018-12-10T03:37:16.148Z,96745.20
2018-12-10T03:37:47.755Z,96750.00
2018-12-10T03:38:19.392Z,96753.87
2018-12-10T03:38:50.994Z,96757.33
2018-12-10T03:39:22.590Z,96759.48
2018-12-10T03:39:54.211Z,96757.84
2018-12-10T03:40:25.805Z,96758.67
2018-12-10T03:40:57.424Z,96757.03
2018-12-10T03:41:29.026Z,96759.17
2018-12-10T03:42:00.622Z,96753.70
2018-12-10T03:42:32.218Z,96754.14
2018-12-10T03:43:03.826Z,96754.20
2018-12-10T03:43:35.536Z,96759.89
2018-12-10T03:44:07.140Z,96760.25
2018-12-10T03:44:38.733Z,96761.56
2018-12-10T03:45:10.340Z,96768.47
2018-12-10T03:45:41.928Z,96773.20
2018-12-10T03:46:13.527Z,96759.59
2018-12-10T03:46:45.122Z,96763.92
2018-12-10T03:47:16.727Z,96765.23
2018-12-10T03:47:48.322Z,96768.23
2018-12-10T03:48:19.947Z,96773.77
2018-12-10T03:48:51.560Z,96779.37
2018-12-10T03:49:23.170Z,96781.60
2018-12-10T03:49:54.759Z,96775.30
2018-12-10T03:50:26.365Z,96774.45
2018-12-10T03:50:57.963Z,96773.71
2018-12-10T03:51:29.603Z,96775.02
2018-12-10T03:52:01.207Z,96774.60
2018-12-10T03:52:32.806Z,96772.99
2018-12-10T03:53:04.408Z,96788.39
2018-12-10T03:53:36.030Z,96779.01
2018-12-10T03:54:07.621Z,96781.23
2018-12-10T03:54:39.222Z,96784.25
2018-12-10T03:55:10.821Z,96784.66
2018-12-10T03:55:42.419Z,96787.67
2018-12-10T03:56:14.024Z,96781.80
2018-12-10T03:56:45.625Z,96782.58
2018-12-10T03:57:17.244Z,96795.80
2018-12-10T03:57:48.861Z,96786.83
2018-12-10T03:58:20.489Z,96786.86
2018-12-10T03:58:52.106Z,96804.34
2018-12-10T03:59:23.719Z,96785.58
2018-12-10T03:59:55.320Z,96800.05
2018-12-10T04:00:26.920Z,96794.09
2018-12-10T04:00:58.520Z,96798.03
2018-12-10T04:01:30.108Z,96798.14
2018-12-10T04:02:01.717Z,96794.78
2018-12-10T04:02:33.336Z,96798.70
2018-12-10T04:03:04.940Z,96792.30
2018-12-10T04:03:36.547Z,96789.38
2018-12-10T04:04:08.156Z,96793.28
2018-12-10T04:04:39.765Z,96787.01
2018-12-10T04:05:11.363Z,96798.48
2018-12-10T04:05:42.958Z,96794.65
2018-12-10T04:06:14.540Z,96792.63
2018-12-10T04:06:46.152Z,96793.37
2018-12-10T04:07:17.760Z,96795.48
2018-12-10T04:07:49.344Z,96790.78
2018-12-10T04:08:20.925Z,96796.79
2018-12-10T04:08:52.538Z,96793.02
2018-12-10T04:09:24.120Z,96797.27
2018-12-10T04:09:55.714Z,96795.57
2018-12-10T04:10:27.399Z,96793.48
2018-12-10T04:10:59.000Z,96801.16
2018-12-10T04:11:30.597Z,96786.66
2018-12-10T04:12:02.180Z,96783.67
2018-12-10T04:12:33.774Z,96803.39
2018-12-10T04:13:05.379Z,96792.83
2018-12-10T04:13:36.997Z,96794.99
2018-12-10T04:14:08.594Z,96811.62
2018-12-10T04:14:40.199Z,96798.80
2018-12-10T04:15:11.808Z,96801.36
2018-12-10T04:15:43.420Z,96801.28
2018-12-10T04:16:15.032Z,96797.97
2018-12-10T04:16:46.646Z,96794.97
2018-12-10T04:17:18.270Z,96802.53
2018-12-10T04:17:49.856Z,96803.39
2018-12-10T04:18:21.459Z,96807.28
2018-12-10T04:18:53.418Z,96802.67
2018-12-10T04:19:25.015Z,96812.48
2018-12-10T04:19:56.631Z,96818.95
2018-12-10T04:20:28.315Z,96799.01
2018-12-10T04:20:59.936Z,96815.58
2018-12-10T04:21:31.531Z,96815.19
2018-12-10T04:22:03.133Z,96812.30
2018-12-10T04:22:34.732Z,96816.22
2018-12-10T04:23:06.344Z,96823.55
2018-12-10T04:23:37.984Z,96822.34
2018-12-10T04:24:09.596Z,96814.34
2018-12-10T04:24:41.203Z,96822.46
2018-12-10T04:25:12.798Z,96810.16
2018-12-10T04:25:44.408Z,96818.73
2018-12-10T04:26:16.024Z,96825.19
2018-12-10T04:26:47.608Z,96803.16
2018-12-10T04:27:19.203Z,96824.44
2018-12-10T04:27:50.804Z,96820.20
2018-12-10T04:28:22.421Z,96824.66
2018-12-10T04:28:54.052Z,96829.30
2018-12-10T04:29:25.661Z,96827.25
2018-12-10T04:29:57.250Z,96828.13
2018-12-10T04:30:28.861Z,96829.86
2018-12-10T04:31:00.484Z,96833.36
2018-12-10T04:31:32.082Z,96832.97
2018-12-10T04:32:03.692Z,96836.01
2018-12-10T04:32:35.290Z,96835.61
2018-12-10T04:33:06.876Z,96835.20
2018-12-10T04:33:38.481Z,96842.03
2018-12-10T04:34:10.102Z,96835.28
2018-12-10T04:34:41.702Z,96837.42
2018-12-10T04:35:13.293Z,96830.16
2018-12-10T04:35:44.910Z,96842.09
2018-12-10T04:36:16.528Z,96832.22
2018-12-10T04:36:48.126Z,96840.70
2018-12-10T04:37:19.717Z,96836.81
2018-12-10T04:37:51.318Z,96841.45
2018-12-10T04:38:22.900Z,96839.23
2018-12-10T04:38:54.545Z,96840.09
2018-12-10T04:39:26.162Z,96849.72
2018-12-10T04:39:57.759Z,96849.16
2018-12-10T04:40:29.369Z,96852.50
2018-12-10T04:41:00.983Z,96840.93
2018-12-10T04:41:32.582Z,96843.38
2018-12-10T04:42:04.192Z,96845.83
2018-12-10T04:42:35.785Z,96848.69
2018-12-10T04:43:07.392Z,96853.25
2018-12-10T04:43:39.005Z,96848.41
2018-12-10T04:44:10.746Z,96843.63
2018-12-10T04:44:42.307Z,96849.47
2018-12-10T04:45:16.420Z,96858.31
2018-12-10T04:45:48.123Z,96842.81
2018-12-10T04:46:19.721Z,96847.38
2018-12-10T04:46:51.329Z,96853.22
2018-12-10T04:47:22.943Z,96854.71
2018-12-10T04:47:54.532Z,96852.70
2018-12-10T04:48:26.126Z,96853.00
2018-12-10T04:48:57.762Z,96849.02
2018-12-10T04:49:29.373Z,96849.29
2018-12-10T04:50:00.965Z,96852.18
2018-12-10T04:50:32.558Z,96847.78
2018-12-10T04:51:04.153Z,96857.07
2018-12-10T04:51:35.765Z,96848.94
2018-12-10T04:52:07.363Z,96856.06
2018-12-10T04:52:38.966Z,96856.30
2018-12-10T04:53:10.619Z,96861.22
2018-12-10T04:53:42.214Z,96862.69
2018-12-10T04:54:13.832Z,96869.34
2018-12-10T04:54:45.437Z,96864.12
2018-12-10T04:55:17.038Z,96858.11
2018-12-10T04:55:48.632Z,96867.38
2018-12-10T04:56:20.245Z,96878.48
2018-12-10T04:56:51.842Z,96868.17
2018-12-10T04:57:23.454Z,96872.80
2018-12-10T04:57:55.042Z,96873.12
2018-12-10T04:58:26.624Z,96873.95
2018-12-10T04:58:58.232Z,96871.78
2018-12-10T04:59:29.870Z,96870.50
2018-12-10T05:00:01.500Z,96874.38
2018-12-10T05:00:33.094Z,96871.39
2018-12-10T05:01:04.696Z,96873.12
2018-12-10T05:01:36.296Z,96882.18
2018-12-10T05:02:07.903Z,96881.77
2018-12-10T05:02:39.487Z,96876.31
2018-12-10T05:03:11.086Z,96872.08
2018-12-10T05:03:42.690Z,96877.32
2018-12-10T05:04:14.309Z,96876.45
2018-12-10T05:04:45.901Z,96874.22
2018-12-10T05:05:17.494Z,96876.31
2018-12-10T05:05:49.093Z,96881.70
2018-12-10T05:06:20.687Z,96885.16
2018-12-10T05:06:52.281Z,96877.34
2018-12-10T05:07:23.874Z,96883.98
2018-12-10T05:07:55.477Z,96876.80
2018-12-10T05:08:27.070Z,96892.01
2018-12-10T05:08:58.652Z,96889.95
2018-12-10T05:09:30.264Z,96878.06
2018-12-10T05:10:01.873Z,96883.61
2018-12-10T05:10:33.470Z,96882.69
2018-12-10T05:11:05.052Z,96886.08
2018-12-10T05:11:36.641Z,96877.92
2018-12-10T05:12:08.233Z,96888.17
2018-12-10T05:12:39.819Z,96882.13
2018-12-10T05:13:11.418Z,96889.33
2018-12-10T05:13:43.030Z,96888.89
2018-12-10T05:14:14.664Z,96890.97
2018-12-10T05:14:46.248Z,96893.59
2018-12-10T05:15:17.841Z,96889.22
2018-12-10T05:15:49.448Z,96888.77
2018-12-10T05:16:21.042Z,96893.06
2018-12-10T05:16:52.637Z,96891.39
2018-12-10T05:17:24.252Z,96891.87
2018-12-10T05:17:55.857Z,96901.64
2018-12-10T05:18:27.478Z,96900.77
2018-12-10T05:18:59.087Z,96899.47
2018-12-10T05:19:30.720Z,96899.87
2018-12-10T05:20:02.323Z,96905.84
2018-12-10T05:20:33.918Z,96907.17
2018-12-10T05:21:05.518Z,96908.99
2018-12-10T05:21:37.115Z,96909.13
2018-12-10T05:22:08.713Z,96900.38
2018-12-10T05:22:40.315Z,96908.41
2018-12-10T05:23:11.923Z,96903.41
2018-12-10T05:23:43.522Z,96907.33
2018-12-10T05:24:15.149Z,96907.80
2018-12-10T05:24:46.852Z,96914.23
2018-12-10T05:25:18.446Z,96907.95
2018-12-10T05:25:50.041Z,96903.69
2018-12-10T05:26:21.649Z,96908.81
2018-12-10T05:26:53.259Z,96914.37
2018-12-10T05:27:24.856Z,96911.45
2018-12-10T05:27:56.450Z,96915.30
2018-12-10T05:28:28.042Z,96913.59
2018-12-10T05:28:59.623Z,96912.34
2018-12-10T05:29:31.260Z,96909.01
2018-12-10T05:30:02.854Z,96915.02
2018-12-10T05:30:34.460Z,96907.78
2018-12-10T05:31:06.055Z,96918.58
2018-12-10T05:31:37.660Z,96915.19
2018-12-10T05:32:09.254Z,96912.69
2018-12-10T05:32:40.864Z,96909.84
2018-12-10T05:33:12.472Z,96915.36
2018-12-10T05:33:44.075Z,96912.08
2018-12-10T05:34:15.674Z,96919.78
2018-12-10T05:34:47.293Z,96913.85
2018-12-10T05:35:18.881Z,96831.38
2018-12-10T05:35:50.482Z,96919.50
2018-12-10T05:36:22.092Z,96918.72
2018-12-10T05:36:53.705Z,96921.34
2018-12-10T05:37:25.310Z,96918.89
2018-12-10T05:37:56.894Z,96918.50
2018-12-10T05:38:28.500Z,96917.72
2018-12-10T05:39:00.107Z,96926.23
2018-12-10T05:39:31.729Z,96922.87
2018-12-10T05:40:03.322Z,96914.85
2018-12-10T05:40:34.908Z,96919.55
2018-12-10T05:41:06.615Z,96920.44
2018-12-10T05:41:38.175Z,96926.45
2018-12-10T05:42:09.788Z,96919.27
2018-12-10T05:42:41.381Z,96920.94
2018-12-10T05:43:12.977Z,96927.78
2018-12-10T05:43:44.574Z,96933.31
2018-12-10T05:44:16.177Z,96935.85
2018-12-10T05:44:47.798Z,96917.55
2018-12-10T05:45:19.383Z,96926.53
2018-12-10T05:45:50.977Z,96927.48
2018-12-10T05:46:22.572Z,96924.91
2018-12-10T05:46:54.180Z,96924.54
2018-12-10T05:47:25.778Z,96931.84
2018-12-10T05:47:57.370Z,96926.33
2018-12-10T05:48:28.970Z,96932.38
2018-12-10T05:49:00.575Z,96927.27
2018-12-10T05:49:32.198Z,96933.36
2018-12-10T05:50:03.819Z,96933.78
2018-12-10T05:50:35.431Z,96935.09
2018-12-10T05:51:07.025Z,96930.00
2018-12-10T05:51:38.637Z,96932.61
2018-12-10T05:52:10.235Z,96930.91
2018-12-10T05:52:41.843Z,96937.34
2018-12-10T05:53:13.439Z,96931.47
2018-12-10T05:53:45.036Z,96940.42
2018-12-10T05:54:16.644Z,96938.72
2018-12-10T05:54:48.265Z,96936.61
2018-12-10T05:55:19.872Z,96939.61
2018-12-10T05:55:51.471Z,96938.75
2018-12-10T05:56:23.065Z,96942.17
2018-12-10T05:56:54.658Z,96937.97
2018-12-10T05:57:26.249Z,96915.80
2018-12-10T05:57:57.846Z,96948.59
2018-12-10T05:58:29.445Z,96948.98
2018-12-10T05:59:01.039Z,96946.45
2018-12-10T05:59:32.634Z,96944.28
2018-12-10T06:00:04.230Z,96951.96
2018-12-10T06:00:35.836Z,96943.87
2018-12-10T06:01:07.428Z,96951.55
2018-12-10T06:01:39.018Z,96955.78
2018-12-10T06:02:10.623Z,96945.06
2018-12-10T06:02:42.232Z,96948.04
2018-12-10T06:03:13.834Z,96953.11
2018-12-10T06:03:45.446Z,96960.70
2018-12-10T06:04:17.060Z,96948.30
2018-12-10T06:04:49.140Z,96954.26
2018-12-10T06:05:21.065Z,96951.28
2018-12-10T06:05:52.672Z,96954.67
2018-12-10T06:06:24.288Z,96957.66
2018-12-10T06:06:55.900Z,96960.57
2018-12-10T06:07:27.494Z,96958.82
2018-12-10T06:07:59.086Z,96960.87
2018-12-10T06:08:30.678Z,96957.02
2018-12-10T06:09:02.288Z,96951.39
2018-12-10T06:09:33.895Z,96957.30
2018-12-10T06:10:05.599Z,96956.80
2018-12-10T06:10:37.168Z,96954.66
2018-12-10T06:11:08.776Z,96961.00
2018-12-10T06:11:40.389Z,96970.74